createdAt,value
2022-10-05T00:00:56.074Z,64.80
2022-10-05T00:03:25.706Z,64.80
2022-10-05T00:05:53.891Z,64.80
2022-10-05T00:08:30.375Z,64.80
2022-10-05T00:10:57.877Z,64.80
2022-10-05T00:13:28.328Z,64.80
2022-10-05T00:16:10.903Z,64.80
2022-10-05T00:18:39.776Z,64.80
2022-10-05T00:21:20.757Z,64.80
2022-10-05T00:23:48.802Z,64.80
2022-10-05T00:26:25.753Z,64.80
2022-10-05T00:28:54.704Z,64.90
2022-10-05T00:31:30.979Z,64.80
2022-10-05T00:33:59.018Z,64.90
2022-10-05T00:36:27.618Z,64.80
2022-10-05T00:38:55.517Z,64.80
2022-10-05T00:41:34.945Z,64.80
2022-10-05T00:44:17.128Z,64.80
2022-10-05T00:46:44.752Z,64.80
2022-10-05T00:49:30.990Z,64.90
2022-10-05T00:52:35.981Z,64.80
2022-10-05T00:55:24.078Z,64.90
2022-10-05T00:58:07.482Z,64.90
2022-10-05T01:00:58.481Z,64.90
2022-10-05T01:03:54.691Z,64.90
2022-10-05T01:06:41.117Z,64.80
2022-10-05T01:09:40.444Z,64.90
2022-10-05T01:12:43.280Z,64.90
2022-10-05T01:15:16.870Z,64.90
2022-10-05T01:18:21.185Z,64.90
2022-10-05T01:21:03.752Z,64.90
2022-10-05T01:24:00.956Z,64.90
2022-10-05T01:27:09.693Z,64.90
2022-10-05T01:29:49.273Z,64.90
2022-10-05T01:32:31.817Z,65.00
2022-10-05T01:35:25.469Z,65.00
2022-10-05T01:38:02.184Z,64.90
2022-10-05T01:40:39.674Z,64.90
2022-10-05T01:43:39.741Z,64.90
2022-10-05T01:46:34.027Z,64.90
2022-10-05T01:49:18.603Z,64.90
2022-10-05T01:52:04.671Z,64.90
2022-10-05T01:54:58.334Z,64.90
2022-10-05T01:57:45.972Z,65.00
2022-10-05T02:00:20.216Z,65.00
2022-10-05T02:03:05.060Z,65.00
2022-10-05T02:05:35.421Z,65.00
2022-10-05T02:08:14.525Z,64.90
2022-10-05T02:10:50.491Z,64.90
2022-10-05T02:13:44.790Z,64.90
2022-10-05T02:16:16.964Z,64.80
2022-10-05T02:18:52.399Z,65.00
2022-10-05T02:21:21.747Z,64.90
2022-10-05T02:23:54.423Z,64.90
2022-10-05T02:26:24.458Z,64.90
2022-10-05T02:29:06.039Z,64.90
2022-10-05T02:31:36.397Z,64.80
2022-10-05T02:34:25.392Z,64.90
2022-10-05T02:37:29.462Z,64.90
2022-10-05T02:39:59.803Z,64.90
2022-10-05T02:42:52.400Z,65.60
2022-10-05T02:46:08.785Z,65.00
2022-10-05T02:49:30.249Z,65.00
2022-10-05T02:52:11.824Z,65.00
2022-10-05T02:55:03.794Z,65.20
2022-10-05T02:57:40.039Z,65.00
2022-10-05T03:00:13.977Z,65.00
2022-10-05T03:02:44.431Z,65.00
2022-10-05T03:05:34.112Z,65.10
2022-10-05T03:08:20.557Z,65.00
2022-10-05T03:10:57.094Z,65.00
2022-10-05T03:13:27.825Z,65.10
2022-10-05T03:16:17.612Z,65.10
2022-10-05T03:19:12.561Z,65.00
2022-10-05T03:22:01.828Z,65.10
2022-10-05T03:24:53.157Z,65.00
2022-10-05T03:27:47.023Z,65.10
2022-10-05T03:30:18.593Z,65.10
2022-10-05T03:33:20.157Z,65.10
2022-10-05T03:35:59.426Z,65.00
2022-10-05T03:38:29.582Z,65.10
2022-10-05T03:41:35.942Z,65.10
2022-10-05T03:44:16.789Z,65.00
2022-10-05T03:47:12.976Z,65.10
2022-10-05T03:50:12.140Z,65.10
2022-10-05T03:53:03.059Z,65.10
2022-10-05T03:55:45.568Z,65.10
2022-10-05T03:58:26.293Z,65.10
2022-10-05T04:01:01.427Z,65.10
2022-10-05T04:03:41.243Z,65.10
2022-10-05T04:06:20.831Z,65.10
2022-10-05T04:09:00.586Z,65.10
2022-10-05T04:11:42.358Z,65.10
2022-10-05T04:14:27.939Z,65.10
2022-10-05T04:17:03.288Z,65.10
2022-10-05T04:20:03.176Z,65.10
2022-10-05T04:22:35.487Z,65.00
2022-10-05T04:25:30.037Z,65.10
2022-10-05T04:28:02.699Z,65.00
2022-10-05T04:30:33.003Z,65.10
2022-10-05T04:33:01.201Z,65.10
2022-10-05T04:35:32.436Z,65.00
2022-10-05T04:38:03.682Z,65.10
2022-10-05T04:40:46.275Z,65.10
2022-10-05T04:43:28.704Z,65.00
2022-10-05T04:46:18.732Z,65.00
2022-10-05T04:48:58.978Z,65.00
2022-10-05T04:51:38.594Z,65.10
2022-10-05T04:54:19.616Z,65.20
2022-10-05T04:56:53.897Z,65.10
2022-10-05T04:59:39.614Z,65.10
2022-10-05T05:02:39.124Z,65.20
2022-10-05T05:05:24.259Z,65.10
2022-10-05T05:08:24.124Z,65.10
2022-10-05T05:11:07.298Z,65.10
2022-10-05T05:13:43.723Z,65.10
2022-10-05T05:16:23.962Z,65.10
2022-10-05T05:19:13.211Z,65.10
2022-10-05T05:21:49.727Z,65.10
2022-10-05T05:24:39.260Z,65.10
2022-10-05T05:27:22.149Z,65.10
2022-10-05T05:30:11.431Z,65.20
2022-10-05T05:32:56.217Z,65.20
2022-10-05T05:35:41.414Z,65.20
2022-10-05T05:38:51.996Z,65.20
2022-10-05T05:41:25.311Z,65.30
2022-10-05T05:44:16.707Z,65.20
2022-10-05T05:47:04.019Z,65.20
2022-10-05T05:49:50.811Z,65.30
2022-10-05T05:52:34.799Z,65.30
2022-10-05T05:55:17.867Z,65.30
2022-10-05T05:57:59.174Z,65.30
2022-10-05T06:00:44.874Z,65.30
2022-10-05T06:03:22.522Z,65.30
2022-10-05T06:05:53.941Z,65.20
2022-10-05T06:08:27.533Z,65.20
2022-10-05T06:11:17.962Z,65.20
2022-10-05T06:13:47.115Z,65.20
2022-10-05T06:16:28.739Z,65.20
2022-10-05T06:19:00.810Z,65.10
2022-10-05T06:21:45.638Z,65.10
2022-10-05T06:24:19.052Z,65.10
2022-10-05T06:27:23.727Z,65.10
2022-10-05T06:30:13.693Z,65.20
2022-10-05T06:32:50.555Z,65.20
2022-10-05T06:35:38.875Z,65.20
2022-10-05T06:38:23.950Z,65.20
2022-10-05T06:41:16.043Z,65.10
2022-10-05T06:44:10.693Z,65.10
2022-10-05T06:46:45.174Z,65.10
2022-10-05T06:49:51.599Z,65.00
2022-10-05T06:52:59.489Z,65.20
2022-10-05T06:55:42.474Z,65.20
2022-10-05T06:58:49.040Z,65.10
2022-10-05T07:01:58.006Z,65.20
2022-10-05T07:04:47.788Z,65.20
2022-10-05T07:07:20.869Z,65.40
2022-10-05T07:09:48.234Z,65.30
2022-10-05T07:12:53.285Z,65.30
2022-10-05T07:15:27.719Z,65.60
2022-10-05T07:18:10.021Z,65.30
2022-10-05T07:21:02.830Z,65.30
2022-10-05T07:23:45.943Z,65.40
2022-10-05T07:26:31.137Z,65.30
2022-10-05T07:29:07.468Z,65.30
2022-10-05T07:31:36.010Z,65.50
2022-10-05T07:34:15.456Z,65.50
2022-10-05T07:37:20.407Z,65.30
2022-10-05T07:40:00.851Z,65.50
2022-10-05T07:42:56.659Z,65.30
2022-10-05T07:45:55.557Z,65.40
2022-10-05T07:48:35.843Z,65.40
2022-10-05T07:51:16.155Z,65.40
2022-10-05T07:54:07.251Z,65.20
2022-10-05T07:56:48.999Z,64.90
2022-10-05T07:59:40.235Z,64.70
2022-10-05T08:02:22.847Z,64.50
2022-10-05T08:05:02.875Z,64.40
2022-10-05T08:07:34.820Z,64.10
2022-10-05T08:10:20.736Z,64.00
2022-10-05T08:13:21.916Z,63.90
2022-10-05T08:15:56.914Z,63.80
2022-10-05T08:18:45.412Z,64.10
2022-10-05T08:21:16.394Z,63.90
2022-10-05T08:23:58.334Z,63.80
2022-10-05T08:27:16.732Z,63.60
2022-10-05T08:30:11.112Z,63.60
2022-10-05T08:33:01.813Z,63.50
2022-10-05T08:35:35.143Z,63.40
2022-10-05T08:38:10.567Z,63.50
2022-10-05T08:40:59.575Z,63.40
2022-10-05T08:43:35.294Z,63.30
2022-10-05T08:46:24.469Z,63.10
2022-10-05T08:49:22.591Z,63.20
2022-10-05T08:52:24.038Z,63.10
2022-10-05T08:55:06.468Z,63.00
2022-10-05T08:57:48.867Z,63.00
2022-10-05T09:00:32.233Z,62.90
2022-10-05T09:03:34.769Z,62.80
2022-10-05T09:06:16.035Z,62.70
2022-10-05T09:08:52.403Z,62.80
2022-10-05T09:11:34.473Z,62.80
2022-10-05T09:14:21.083Z,62.60
2022-10-05T09:17:11.502Z,62.40
2022-10-05T09:19:57.556Z,62.30
2022-10-05T09:22:35.785Z,62.30
2022-10-05T09:25:23.019Z,62.30
2022-10-05T09:27:59.018Z,62.40
2022-10-05T09:30:48.018Z,62.30
2022-10-05T09:33:39.993Z,62.30
2022-10-05T09:36:38.659Z,62.10
2022-10-05T09:39:05.983Z,62.10
2022-10-05T09:41:54.640Z,62.20
2022-10-05T09:44:45.802Z,62.20
2022-10-05T09:47:31.829Z,62.00
2022-10-05T09:50:21.141Z,62.10
2022-10-05T09:52:57.131Z,62.10
2022-10-05T09:55:39.925Z,62.10
2022-10-05T09:58:14.550Z,62.00
2022-10-05T10:01:32.570Z,61.90
2022-10-05T10:04:15.737Z,61.90
2022-10-05T10:07:08.102Z,61.90
2022-10-05T10:09:39.713Z,61.70
2022-10-05T10:12:49.196Z,61.70
2022-10-05T10:15:32.039Z,61.60
2022-10-05T10:18:35.110Z,62.20
2022-10-05T10:21:21.385Z,61.50
2022-10-05T10:24:16.849Z,61.50
2022-10-05T10:27:12.454Z,61.30
2022-10-05T10:30:19.059Z,61.40
2022-10-05T10:32:57.079Z,61.40
2022-10-05T10:36:02.900Z,61.30
2022-10-05T10:38:36.605Z,61.40
2022-10-05T10:41:09.630Z,61.40
2022-10-05T10:43:39.441Z,61.40
2022-10-05T10:46:23.526Z,61.40
2022-10-05T10:49:09.974Z,61.40
2022-10-05T10:51:52.634Z,61.40
2022-10-05T10:54:31.714Z,62.20
2022-10-05T10:57:15.377Z,61.60
2022-10-05T11:00:08.681Z,61.50
2022-10-05T11:03:05.900Z,61.60
2022-10-05T11:06:00.114Z,61.60
2022-10-05T11:08:27.542Z,62.50
2022-10-05T11:11:18.155Z,61.70
2022-10-05T11:14:03.498Z,61.70
2022-10-05T11:17:31.793Z,61.50
2022-10-05T11:20:19.658Z,61.50
2022-10-05T11:23:08.224Z,61.80
2022-10-05T11:26:06.763Z,61.90
2022-10-05T11:28:53.471Z,61.90
2022-10-05T11:31:23.942Z,61.90
2022-10-05T11:34:00.397Z,62.00
2022-10-05T11:37:05.473Z,61.90
2022-10-05T11:39:43.763Z,62.00
2022-10-05T11:42:35.978Z,62.10
2022-10-05T11:45:15.413Z,62.20
2022-10-05T11:48:17.121Z,62.20
2022-10-05T11:50:58.178Z,62.30
2022-10-05T11:53:32.439Z,62.50
2022-10-05T11:56:23.910Z,62.40
2022-10-05T11:59:00.730Z,62.90
2022-10-05T12:01:57.654Z,62.60
2022-10-05T12:04:52.548Z,62.60
2022-10-05T12:07:35.943Z,62.70
2022-10-05T12:10:15.388Z,62.40
2022-10-05T12:13:13.812Z,62.40
2022-10-05T12:15:48.238Z,62.70
2022-10-05T12:18:23.581Z,62.30
2022-10-05T12:21:07.810Z,62.30
2022-10-05T12:24:08.947Z,62.30
2022-10-05T12:27:16.141Z,62.20
2022-10-05T12:30:26.594Z,62.30
2022-10-05T12:33:19.891Z,62.20
2022-10-05T12:36:01.992Z,62.20
2022-10-05T12:38:46.321Z,62.20
2022-10-05T12:41:18.860Z,62.10
2022-10-05T12:44:04.422Z,62.10
2022-10-05T12:47:01.350Z,62.10
2022-10-05T12:49:46.781Z,62.10
2022-10-05T12:52:34.921Z,62.10
2022-10-05T12:55:15.619Z,62.20
2022-10-05T12:57:57.931Z,62.20
2022-10-05T13:00:25.777Z,62.30
2022-10-05T13:03:08.759Z,62.30
2022-10-05T13:06:02.489Z,62.30
2022-10-05T13:08:39.272Z,62.30
2022-10-05T13:11:14.876Z,62.30
2022-10-05T13:14:29.312Z,62.40
2022-10-05T13:17:19.108Z,62.20
2022-10-05T13:20:03.310Z,62.30
2022-10-05T13:22:46.664Z,62.30
2022-10-05T13:25:14.132Z,62.30
2022-10-05T13:27:46.345Z,62.30
2022-10-05T13:30:21.481Z,62.30
2022-10-05T13:33:06.879Z,62.30
2022-10-05T13:36:03.102Z,62.30
2022-10-05T13:38:39.296Z,62.30
2022-10-05T13:41:41.746Z,62.30
2022-10-05T13:44:32.129Z,62.30
2022-10-05T13:47:05.885Z,62.30
2022-10-05T13:49:51.003Z,62.40
2022-10-05T13:52:32.239Z,62.40
2022-10-05T13:55:14.742Z,62.50
2022-10-05T13:57:52.538Z,62.50
2022-10-05T14:00:27.124Z,62.50
2022-10-05T14:02:58.001Z,62.50
2022-10-05T14:05:31.745Z,62.50
2022-10-05T14:08:17.448Z,62.50
2022-10-05T14:10:47.963Z,62.50
2022-10-05T14:13:47.041Z,62.60
2022-10-05T14:16:26.323Z,62.60
2022-10-05T14:19:19.088Z,62.70
2022-10-05T14:22:22.792Z,62.70
2022-10-05T14:25:09.418Z,62.70
2022-10-05T14:28:00.365Z,62.50
2022-10-05T14:30:30.378Z,62.20
2022-10-05T14:33:13.141Z,62.30
2022-10-05T14:35:51.927Z,62.50
2022-10-05T14:38:22.728Z,62.50
2022-10-05T14:41:17.723Z,62.50
2022-10-05T14:43:56.463Z,62.40
2022-10-05T14:46:29.084Z,62.30
2022-10-05T14:49:37.517Z,62.10
2022-10-05T14:52:34.899Z,62.20
2022-10-05T14:55:22.656Z,62.00
2022-10-05T14:58:08.960Z,61.80
2022-10-05T15:00:49.009Z,61.70
2022-10-05T15:03:35.655Z,61.60
2022-10-05T15:06:05.630Z,61.50
2022-10-05T15:08:57.683Z,61.20
2022-10-05T15:11:36.921Z,61.10
2022-10-05T15:14:19.425Z,61.00
2022-10-05T15:16:52.412Z,60.90
2022-10-05T15:19:27.629Z,60.90
2022-10-05T15:22:30.379Z,60.80
2022-10-05T15:25:14.047Z,60.70
2022-10-05T15:27:41.501Z,60.50
2022-10-05T15:30:09.418Z,60.50
2022-10-05T15:32:48.613Z,60.90
2022-10-05T15:35:37.317Z,60.70
2022-10-05T15:38:25.823Z,60.70
2022-10-05T15:41:07.958Z,60.20
2022-10-05T15:44:01.706Z,60.10
2022-10-05T15:47:04.253Z,60.10
2022-10-05T15:49:57.306Z,60.10
2022-10-05T15:52:38.053Z,60.00
2022-10-05T15:55:28.623Z,59.90
2022-10-05T15:58:10.591Z,59.90
2022-10-05T16:00:46.211Z,59.80
2022-10-05T16:03:46.891Z,59.80
2022-10-05T16:06:47.200Z,59.70
2022-10-05T16:09:49.930Z,59.70
2022-10-05T16:12:43.378Z,59.90
2022-10-05T16:15:18.846Z,59.90
2022-10-05T16:18:18.610Z,59.90
2022-10-05T16:20:46.007Z,59.90
2022-10-05T16:23:22.235Z,59.80
2022-10-05T16:25:58.939Z,60.40
2022-10-05T16:28:31.427Z,60.00
2022-10-05T16:31:19.172Z,60.20
2022-10-05T16:34:04.176Z,60.20
2022-10-05T16:37:01.404Z,60.10
2022-10-05T16:40:00.791Z,60.30
2022-10-05T16:43:01.553Z,60.20
2022-10-05T16:45:51.987Z,60.20
2022-10-05T16:48:29.023Z,59.90
2022-10-05T16:51:08.867Z,60.00
2022-10-05T16:53:41.776Z,60.10
2022-10-05T16:56:43.952Z,59.90
2022-10-05T16:59:29.829Z,60.00
2022-10-05T17:02:20.319Z,60.00
2022-10-05T17:04:58.133Z,60.30
2022-10-05T17:07:39.553Z,60.20
2022-10-05T17:10:25.643Z,60.20
2022-10-05T17:13:08.101Z,60.60
2022-10-05T17:16:00.890Z,60.00
2022-10-05T17:18:57.151Z,60.10
2022-10-05T17:21:47.617Z,60.20
2022-10-05T17:24:44.284Z,60.20
2022-10-05T17:27:21.243Z,60.20
2022-10-05T17:30:12.402Z,60.20
2022-10-05T17:32:55.493Z,60.00
2022-10-05T17:35:41.917Z,60.00
2022-10-05T17:38:24.310Z,60.00
2022-10-05T17:41:12.107Z,60.00
2022-10-05T17:43:39.837Z,60.00
2022-10-05T17:46:10.182Z,60.10
2022-10-05T17:49:25.746Z,60.10
2022-10-05T17:52:11.571Z,60.20
2022-10-05T17:55:03.630Z,60.30
2022-10-05T17:57:32.405Z,60.40
2022-10-05T18:00:02.519Z,60.50
2022-10-05T18:02:36.966Z,60.50
2022-10-05T18:05:04.893Z,60.50
2022-10-05T18:07:34.348Z,60.50
2022-10-05T18:10:13.355Z,60.30
2022-10-05T18:13:11.141Z,60.30
2022-10-05T18:15:45.436Z,60.40
2022-10-05T18:18:56.066Z,60.40
2022-10-05T18:21:32.994Z,60.50
2022-10-05T18:24:01.874Z,60.50
2022-10-05T18:26:43.814Z,60.60
2022-10-05T18:29:56.955Z,61.20
2022-10-05T18:32:59.352Z,60.70
2022-10-05T18:36:06.320Z,60.90
2022-10-05T18:38:48.754Z,60.80
2022-10-05T18:41:45.503Z,60.70
2022-10-05T18:44:22.201Z,60.70
2022-10-05T18:46:57.808Z,60.60
2022-10-05T18:49:32.269Z,60.80
2022-10-05T18:52:08.706Z,60.70
2022-10-05T18:54:51.301Z,60.80
2022-10-05T18:57:31.756Z,60.70
2022-10-05T19:00:06.999Z,60.80
2022-10-05T19:02:43.235Z,60.90
2022-10-05T19:05:46.436Z,60.90
2022-10-05T19:08:31.296Z,60.90
2022-10-05T19:11:29.274Z,61.10
2022-10-05T19:14:05.756Z,60.90
2022-10-05T19:16:39.072Z,61.10
2022-10-05T19:19:30.733Z,61.00
2022-10-05T19:22:30.556Z,61.10
2022-10-05T19:25:37.998Z,61.10
2022-10-05T19:28:30.833Z,61.20
2022-10-05T19:31:26.058Z,61.20
2022-10-05T19:34:03.194Z,61.20
2022-10-05T19:36:59.319Z,61.30
2022-10-05T19:39:46.183Z,61.30
2022-10-05T19:42:50.094Z,61.40
2022-10-05T19:45:29.542Z,61.50
2022-10-05T19:48:09.899Z,61.60
2022-10-05T19:50:41.069Z,61.50
2022-10-05T19:53:23.876Z,61.60
2022-10-05T19:55:51.691Z,61.60
2022-10-05T19:58:19.116Z,61.60
2022-10-05T20:00:54.930Z,61.60
2022-10-05T20:03:27.945Z,61.70
2022-10-05T20:06:07.156Z,61.70
2022-10-05T20:08:45.330Z,61.70
2022-10-05T20:11:20.144Z,61.80
2022-10-05T20:13:53.596Z,61.80
2022-10-05T20:16:39.561Z,61.80
2022-10-05T20:19:49.584Z,61.90
2022-10-05T20:22:25.835Z,61.80
2022-10-05T20:24:56.948Z,62.00
2022-10-05T20:27:47.289Z,62.00
2022-10-05T20:30:18.527Z,62.00
2022-10-05T20:32:53.639Z,62.20
2022-10-05T20:35:25.374Z,62.20
2022-10-05T20:37:52.783Z,62.20
2022-10-05T20:40:21.392Z,62.20
2022-10-05T20:42:48.734Z,62.30
2022-10-05T20:45:16.211Z,62.40
2022-10-05T20:47:43.941Z,62.40
2022-10-05T20:50:11.393Z,62.50
2022-10-05T20:52:39.005Z,62.50
2022-10-05T20:55:09.088Z,62.50
2022-10-05T20:57:41.667Z,62.60
2022-10-05T21:00:10.875Z,62.60
2022-10-05T21:02:39.594Z,62.60
2022-10-05T21:05:07.849Z,62.70
2022-10-05T21:07:35.408Z,62.70
2022-10-05T21:10:03.913Z,62.80
2022-10-05T21:12:34.111Z,62.80
2022-10-05T21:15:03.211Z,62.80
2022-10-05T21:17:31.507Z,62.80
2022-10-05T21:20:00.051Z,62.80
2022-10-05T21:22:27.412Z,62.90
2022-10-05T21:24:55.351Z,62.90
2022-10-05T21:27:22.697Z,63.00
2022-10-05T21:29:50.047Z,63.00
2022-10-05T21:32:17.401Z,63.00
2022-10-05T21:34:44.885Z,63.00
2022-10-05T21:37:12.337Z,63.10
2022-10-05T21:39:39.672Z,63.10
2022-10-05T21:42:06.987Z,63.10
2022-10-05T21:44:34.404Z,63.10
2022-10-05T21:47:02.125Z,63.10
2022-10-05T21:49:29.833Z,63.20
2022-10-05T21:51:58.593Z,63.20
2022-10-05T21:54:26.125Z,63.20
2022-10-05T21:56:57.000Z,63.20
2022-10-05T21:59:28.787Z,63.30
2022-10-05T22:01:56.144Z,63.30
2022-10-05T22:04:23.555Z,63.30
2022-10-05T22:06:51.391Z,63.30
2022-10-05T22:09:18.793Z,63.30
2022-10-05T22:11:49.442Z,63.30
2022-10-05T22:14:17.116Z,63.30
2022-10-05T22:16:45.057Z,63.30
2022-10-05T22:19:19.302Z,63.40
2022-10-05T22:21:47.039Z,63.40
2022-10-05T22:24:14.442Z,63.40
2022-10-05T22:26:45.364Z,63.50
2022-10-05T22:29:14.783Z,63.50
2022-10-05T22:31:42.562Z,63.40
2022-10-05T22:34:10.012Z,63.50
2022-10-05T22:36:37.721Z,63.50
2022-10-05T22:39:05.163Z,63.50
2022-10-05T22:41:32.624Z,63.50
2022-10-05T22:44:00.581Z,63.50
2022-10-05T22:46:28.185Z,63.50
2022-10-05T22:48:55.649Z,63.50
2022-10-05T22:51:23.044Z,63.50
2022-10-05T22:53:50.505Z,63.50
2022-10-05T22:56:18.114Z,63.50
2022-10-05T22:58:45.940Z,63.50
2022-10-05T23:01:16.120Z,63.50
2022-10-05T23:03:43.922Z,63.50
2022-10-05T23:06:14.149Z,63.40
2022-10-05T23:08:42.276Z,63.50
2022-10-05T23:11:13.069Z,63.50
2022-10-05T23:13:41.523Z,63.50
2022-10-05T23:16:12.241Z,63.50
2022-10-05T23:18:40.131Z,63.50
2022-10-05T23:21:09.860Z,63.50
2022-10-05T23:23:38.556Z,63.50
2022-10-05T23:26:07.933Z,63.50
2022-10-05T23:28:35.468Z,63.50
2022-10-05T23:31:06.731Z,63.40
2022-10-05T23:33:35.246Z,63.50
2022-10-05T23:36:06.726Z,63.40
2022-10-05T23:38:35.889Z,63.40
2022-10-05T23:41:04.085Z,63.30
2022-10-05T23:43:33.427Z,63.30
2022-10-05T23:46:01.927Z,63.30
2022-10-05T23:48:30.765Z,63.30
2022-10-05T23:50:59.663Z,63.30
2022-10-05T23:53:27.071Z,63.30
2022-10-05T23:55:54.683Z,63.30
2022-10-05T23:58:23.222Z,63.20
